Las Peladas, Argentina
Current Conditions -  °F | °C
As of 12:00 PM on Thursday 23 Oct 2014 (Local Time) from SCAT Reporting Station
Broken Clouds Broken Clouds  
Wind Chill: 17°   Ceiling: 1700
Heat Index: 17°   Visibility: 6mi
Dew Point: 11°   Wind: 3mph
Humidity: 68%   Direction: NA
Pressure: 30.06"   Gusts: NA
Location:  27.04°S, 68.09°W
Report Text: SCAT 231500Z VRB03KT 9999 BKN017 17/11 Q1018
Loading
Personal Weather Stations






























Interactive Weather Map
Tropical Storm Tracking
New forecast layout! Learn more

10-Day Weather Forecast

Advertisements
Track Severe Weather on mobile